HBMPO LEPA-LSZH
Flight info
| Callsign | HBMPO |
|---|---|
| Flight time | 1h 26m |
| Altitude | 40000 |
| Route | MEROS DCT LAPIT DCT CHELY DCT LUMAS DCT MAXIR DCT LUSOL DCT BODRU DCT OKTET DCT IRMAR DCT KINES DCT VANAS DCT MOBLO DCT LAMUR DCT KORED N871 BERSU |
| Aircraft | CL60/M-SBDE1E2E3FGHIJ1J4J5J7M3RWXYZ/LB1V1D1 |
Departure
| Time | 2026-05-04 10:54 |
|---|---|
| Airport | Palma de Mallorca Airport (LEPA) |
Arrival
| Time | 2026-05-04 12:21 |
|---|---|
| Airport | Zürich Airport (LSZH) |
| Time | Latitude | Longitude | Altitude | Speed | Heading |
|---|---|---|---|---|---|
| 2026-05-04 10:05 | 39.54063 | 2.72586 | 41 ft | 0 kts | 149° |
| 2026-05-04 10:43 | 39.54075 | 2.72577 | 41 ft | 1 kts | 149° |
| 2026-05-04 10:44 | 39.54073 | 2.72546 | 41 ft | 0 kts | 58° |
| 2026-05-04 10:45 | 39.54089 | 2.72579 | 41 ft | 7 kts | 59° |
| 2026-05-04 10:45 | 39.54126 | 2.72667 | 41 ft | 14 kts | 59° |
| 2026-05-04 10:46 | 39.54183 | 2.72789 | 41 ft | 9 kts | 60° |
| 2026-05-04 10:46 | 39.54206 | 2.72868 | 41 ft | 11 kts | 87° |
| 2026-05-04 10:46 | 39.54245 | 2.72976 | 41 ft | 15 kts | 58° |
| 2026-05-04 10:46 | 39.54309 | 2.73115 | 41 ft | 19 kts | 60° |
| 2026-05-04 10:47 | 39.54388 | 2.73278 | 41 ft | 23 kts | 58° |
| 2026-05-04 10:47 | 39.54478 | 2.73471 | 41 ft | 26 kts | 58° |
| 2026-05-04 10:47 | 39.54581 | 2.73690 | 42 ft | 29 kts | 58° |
| 2026-05-04 10:47 | 39.54669 | 2.73875 | 42 ft | 24 kts | 58° |
| 2026-05-04 10:49 | 39.55501 | 2.73589 | 43 ft | 27 kts | 328° |
| 2026-05-04 10:49 | 39.55600 | 2.73512 | 43 ft | 7 kts | 329° |
| 2026-05-04 10:50 | 39.55662 | 2.73520 | 43 ft | 9 kts | 59° |
| 2026-05-04 10:51 | 39.56231 | 2.74277 | 45 ft | 7 kts | 249° |
| 2026-05-04 10:52 | 39.56219 | 2.74250 | 44 ft | 0 kts | 239° |
| 2026-05-04 10:52 | 39.56218 | 2.74247 | 44 ft | 4 kts | 239° |
| 2026-05-04 10:54 | 39.52575 | 2.66859 | 4915 ft | 203 kts | 236° |
| 2026-05-04 10:54 | 39.51801 | 2.65325 | 6026 ft | 212 kts | 236° |
| 2026-05-04 10:56 | 39.43583 | 2.56753 | 14937 ft | 239 kts | 206° |
| 2026-05-04 10:56 | 39.41891 | 2.56442 | 15892 ft | 265 kts | 179° |
| 2026-05-04 10:56 | 39.40064 | 2.57393 | 16365 ft | 314 kts | 150° |
| 2026-05-04 10:57 | 39.38364 | 2.59414 | 16418 ft | 342 kts | 141° |
| 2026-05-04 10:57 | 39.36714 | 2.61597 | 16432 ft | 337 kts | 141° |
| 2026-05-04 10:57 | 39.35077 | 2.63754 | 16481 ft | 337 kts | 141° |
| 2026-05-04 10:57 | 39.33421 | 2.65916 | 16460 ft | 339 kts | 141° |
| 2026-05-04 10:58 | 39.31683 | 2.68150 | 16945 ft | 359 kts | 142° |
| 2026-05-04 10:58 | 39.29950 | 2.70354 | 18233 ft | 355 kts | 143° |
| 2026-05-04 10:58 | 39.28288 | 2.72664 | 19467 ft | 360 kts | 131° |
| 2026-05-04 10:58 | 39.27317 | 2.75635 | 20581 ft | 375 kts | 106° |
| 2026-05-04 10:59 | 39.27258 | 2.79082 | 21467 ft | 390 kts | 90° |
| 2026-05-04 10:59 | 39.27465 | 2.82587 | 22270 ft | 397 kts | 90° |
| 2026-05-04 10:59 | 39.27680 | 2.86147 | 23083 ft | 403 kts | 90° |
| 2026-05-04 10:59 | 39.27944 | 2.89717 | 23952 ft | 410 kts | 85° |
| 2026-05-04 11:00 | 39.28601 | 2.93310 | 24813 ft | 418 kts | 74° |
| 2026-05-04 11:01 | 39.39003 | 3.17333 | 29763 ft | 455 kts | 61° |
| 2026-05-04 11:02 | 39.40622 | 3.20957 | 30376 ft | 459 kts | 60° |
| 2026-05-04 11:02 | 39.42228 | 3.24552 | 30960 ft | 463 kts | 60° |
| 2026-05-04 11:05 | 39.65841 | 3.76139 | 38177 ft | 474 kts | 59° |
| 2026-05-04 11:06 | 39.67512 | 3.79818 | 38597 ft | 473 kts | 59° |
| 2026-05-04 11:06 | 39.69157 | 3.83445 | 39005 ft | 473 kts | 59° |
| 2026-05-04 11:06 | 39.70822 | 3.87122 | 39412 ft | 473 kts | 59° |
| 2026-05-04 11:06 | 39.72493 | 3.90814 | 39712 ft | 473 kts | 59° |
| 2026-05-04 11:08 | 39.85931 | 4.16126 | 39986 ft | 503 kts | 36° |
| 2026-05-04 11:10 | 40.08221 | 4.26761 | 39979 ft | 489 kts | 3° |
| 2026-05-04 11:12 | 40.34901 | 4.33062 | 39977 ft | 488 kts | 3° |
| 2026-05-04 11:12 | 40.41592 | 4.34651 | 39979 ft | 488 kts | 3° |
| 2026-05-04 11:13 | 40.48252 | 4.36236 | 39980 ft | 487 kts | 3° |
| 2026-05-04 11:13 | 40.54925 | 4.37828 | 39978 ft | 487 kts | 3° |
| 2026-05-04 11:14 | 40.61578 | 4.39418 | 39974 ft | 488 kts | 3° |
| 2026-05-04 11:16 | 40.88176 | 4.45810 | 39980 ft | 487 kts | 3° |
| 2026-05-04 11:16 | 40.94817 | 4.47416 | 39980 ft | 487 kts | 3° |
| 2026-05-04 11:17 | 41.01478 | 4.49033 | 39973 ft | 488 kts | 4° |
| 2026-05-04 11:19 | 41.28193 | 4.55545 | 39974 ft | 486 kts | 3° |
| 2026-05-04 11:19 | 41.34875 | 4.57182 | 39972 ft | 487 kts | 3° |
| 2026-05-04 11:20 | 41.41514 | 4.58812 | 39968 ft | 487 kts | 4° |
| 2026-05-04 11:20 | 41.48254 | 4.60470 | 39970 ft | 487 kts | 3° |
| 2026-05-04 11:22 | 41.74977 | 4.68284 | 39975 ft | 500 kts | 19° |
| 2026-05-04 11:23 | 41.81062 | 4.72865 | 39978 ft | 506 kts | 26° |
| 2026-05-04 11:25 | 42.02167 | 4.89890 | 39984 ft | 507 kts | 26° |
| 2026-05-04 11:25 | 42.08187 | 4.94770 | 39987 ft | 506 kts | 26° |
| 2026-05-04 11:27 | 42.35213 | 5.16811 | 40018 ft | 504 kts | 26° |
| 2026-05-04 11:28 | 42.41231 | 5.21750 | 40015 ft | 504 kts | 26° |
| 2026-05-04 11:28 | 42.47226 | 5.26680 | 40017 ft | 504 kts | 26° |
| 2026-05-04 11:29 | 42.53186 | 5.31593 | 40010 ft | 503 kts | 26° |
| 2026-05-04 11:29 | 42.59146 | 5.36516 | 40009 ft | 503 kts | 26° |
| 2026-05-04 11:33 | 43.00841 | 5.71278 | 40021 ft | 502 kts | 27° |
| 2026-05-04 11:33 | 43.06173 | 5.75763 | 40024 ft | 502 kts | 27° |
| 2026-05-04 11:34 | 43.12091 | 5.80753 | 40025 ft | 502 kts | 27° |
| 2026-05-04 11:34 | 43.18065 | 5.85802 | 40038 ft | 502 kts | 27° |
| 2026-05-04 11:35 | 43.24043 | 5.90865 | 40039 ft | 501 kts | 27° |
| 2026-05-04 11:35 | 43.29993 | 5.95917 | 40026 ft | 501 kts | 27° |
| 2026-05-04 11:36 | 43.35971 | 6.00741 | 40037 ft | 495 kts | 21° |
| 2026-05-04 11:36 | 43.42375 | 6.03856 | 40040 ft | 484 kts | 6° |
| 2026-05-04 11:37 | 43.48981 | 6.05016 | 40037 ft | 476 kts | 358° |
| 2026-05-04 11:37 | 43.55575 | 6.05677 | 40031 ft | 477 kts | 358° |
| 2026-05-04 11:38 | 43.62186 | 6.06346 | 40037 ft | 477 kts | 358° |
| 2026-05-04 11:38 | 43.68803 | 6.07015 | 40039 ft | 477 kts | 358° |
| 2026-05-04 11:39 | 43.75416 | 6.08049 | 40052 ft | 482 kts | 6° |
| 2026-05-04 11:40 | 43.94133 | 6.19416 | 40068 ft | 493 kts | 22° |
| 2026-05-04 11:41 | 43.97209 | 6.21520 | 40055 ft | 493 kts | 22° |
| 2026-05-04 11:41 | 44.03381 | 6.25748 | 40062 ft | 493 kts | 22° |
| 2026-05-04 11:42 | 44.09518 | 6.29962 | 40070 ft | 493 kts | 22° |
| 2026-05-04 11:42 | 44.15677 | 6.34201 | 40075 ft | 492 kts | 22° |
| 2026-05-04 11:43 | 44.21818 | 6.38438 | 40078 ft | 492 kts | 22° |
| 2026-05-04 11:43 | 44.27947 | 6.42673 | 40082 ft | 491 kts | 22° |
| 2026-05-04 11:44 | 44.34028 | 6.46886 | 40080 ft | 491 kts | 22° |
| 2026-05-04 11:44 | 44.40132 | 6.51125 | 40072 ft | 491 kts | 22° |
| 2026-05-04 11:45 | 44.46236 | 6.55373 | 40067 ft | 491 kts | 22° |
| 2026-05-04 11:45 | 44.52330 | 6.59623 | 40077 ft | 491 kts | 22° |
| 2026-05-04 11:46 | 44.58408 | 6.63872 | 40070 ft | 491 kts | 22° |
| 2026-05-04 11:46 | 44.64505 | 6.68144 | 40081 ft | 490 kts | 23° |
| 2026-05-04 11:47 | 44.70616 | 6.72436 | 40095 ft | 491 kts | 23° |
| 2026-05-04 11:47 | 44.76806 | 6.76378 | 40109 ft | 487 kts | 15° |
| 2026-05-04 11:48 | 44.83344 | 6.78393 | 40082 ft | 478 kts | 0° |
| 2026-05-04 11:48 | 44.89891 | 6.78407 | 40059 ft | 471 kts | 352° |
| 2026-05-04 11:49 | 44.96447 | 6.77977 | 40073 ft | 472 kts | 352° |
| 2026-05-04 11:49 | 45.02992 | 6.77548 | 40073 ft | 472 kts | 352° |
| 2026-05-04 11:50 | 45.09565 | 6.77116 | 40064 ft | 474 kts | 352° |
| 2026-05-04 11:50 | 45.16127 | 6.76683 | 40067 ft | 473 kts | 352° |
| 2026-05-04 11:51 | 45.22734 | 6.76245 | 40051 ft | 474 kts | 352° |
| 2026-05-04 11:51 | 45.29278 | 6.75810 | 40062 ft | 474 kts | 352° |
| 2026-05-04 11:52 | 45.35883 | 6.75371 | 40074 ft | 474 kts | 352° |
| 2026-05-04 11:52 | 45.42453 | 6.74932 | 40063 ft | 474 kts | 352° |
| 2026-05-04 11:53 | 45.49015 | 6.74489 | 40071 ft | 474 kts | 352° |
| 2026-05-04 11:53 | 45.55607 | 6.74038 | 40049 ft | 475 kts | 352° |
| 2026-05-04 11:55 | 45.82007 | 6.73827 | 40052 ft | 485 kts | 10° |
| 2026-05-04 11:56 | 45.88408 | 6.77100 | 40045 ft | 490 kts | 22° |
| 2026-05-04 11:56 | 45.94571 | 6.81137 | 40054 ft | 490 kts | 22° |
| 2026-05-04 11:57 | 46.00738 | 6.85179 | 40050 ft | 489 kts | 22° |
| 2026-05-04 11:57 | 46.06950 | 6.89260 | 40047 ft | 489 kts | 22° |
| 2026-05-04 11:58 | 46.13139 | 6.93335 | 40084 ft | 487 kts | 22° |
| 2026-05-04 11:58 | 46.19288 | 6.97394 | 40083 ft | 488 kts | 22° |
| 2026-05-04 11:59 | 46.25454 | 7.01473 | 40042 ft | 489 kts | 22° |
| 2026-05-04 11:59 | 46.31572 | 7.05532 | 39856 ft | 483 kts | 22° |
| 2026-05-04 11:59 | 46.34617 | 7.07555 | 39257 ft | 480 kts | 22° |
| 2026-05-04 12:00 | 46.37628 | 7.09559 | 38682 ft | 477 kts | 22° |
| 2026-05-04 12:00 | 46.40610 | 7.11545 | 38073 ft | 474 kts | 23° |
| 2026-05-04 12:00 | 46.43609 | 7.13546 | 37465 ft | 472 kts | 23° |
| 2026-05-04 12:00 | 46.46584 | 7.15532 | 36858 ft | 467 kts | 23° |
| 2026-05-04 12:01 | 46.49524 | 7.17498 | 36307 ft | 465 kts | 23° |
| 2026-05-04 12:01 | 46.52451 | 7.19456 | 35614 ft | 468 kts | 23° |
| 2026-05-04 12:02 | 46.69978 | 7.31237 | 31904 ft | 454 kts | 24° |
| 2026-05-04 12:03 | 46.72841 | 7.33168 | 31303 ft | 451 kts | 24° |
| 2026-05-04 12:03 | 46.75676 | 7.35085 | 30698 ft | 447 kts | 24° |
| 2026-05-04 12:03 | 46.78464 | 7.36971 | 30106 ft | 444 kts | 24° |
| 2026-05-04 12:03 | 46.81266 | 7.38869 | 29508 ft | 440 kts | 24° |
| 2026-05-04 12:04 | 46.83969 | 7.40895 | 28930 ft | 437 kts | 32° |
| 2026-05-04 12:04 | 46.86267 | 7.43710 | 28315 ft | 432 kts | 49° |
| 2026-05-04 12:04 | 46.88133 | 7.47046 | 27735 ft | 429 kts | 52° |
| 2026-05-04 12:04 | 46.89979 | 7.50456 | 27185 ft | 424 kts | 52° |
| 2026-05-04 12:05 | 46.91800 | 7.53811 | 26618 ft | 421 kts | 52° |
| 2026-05-04 12:05 | 46.93614 | 7.57157 | 26072 ft | 417 kts | 52° |
| 2026-05-04 12:05 | 46.95414 | 7.60484 | 25510 ft | 414 kts | 52° |
| 2026-05-04 12:05 | 46.97170 | 7.63730 | 24980 ft | 410 kts | 52° |
| 2026-05-04 12:06 | 46.98925 | 7.66979 | 24416 ft | 407 kts | 53° |
| 2026-05-04 12:06 | 47.00671 | 7.70212 | 23900 ft | 403 kts | 53° |
| 2026-05-04 12:06 | 47.02391 | 7.73399 | 23345 ft | 399 kts | 53° |
| 2026-05-04 12:06 | 47.04109 | 7.76584 | 22820 ft | 395 kts | 52° |
| 2026-05-04 12:07 | 47.05802 | 7.79728 | 22298 ft | 390 kts | 53° |
| 2026-05-04 12:07 | 47.07468 | 7.82824 | 21782 ft | 385 kts | 53° |
| 2026-05-04 12:07 | 47.09114 | 7.85887 | 21279 ft | 380 kts | 53° |
| 2026-05-04 12:07 | 47.10743 | 7.88921 | 20769 ft | 376 kts | 53° |
| 2026-05-04 12:08 | 47.12336 | 7.91890 | 20280 ft | 370 kts | 53° |
| 2026-05-04 12:08 | 47.13820 | 7.94967 | 19794 ft | 363 kts | 63° |
| 2026-05-04 12:08 | 47.14899 | 7.98244 | 19309 ft | 358 kts | 67° |
| 2026-05-04 12:08 | 47.15947 | 8.01547 | 18837 ft | 354 kts | 66° |
| 2026-05-04 12:09 | 47.16987 | 8.04809 | 18373 ft | 349 kts | 67° |
| 2026-05-04 12:09 | 47.17999 | 8.07990 | 17902 ft | 345 kts | 67° |
| 2026-05-04 12:09 | 47.19004 | 8.11155 | 17474 ft | 341 kts | 67° |
| 2026-05-04 12:09 | 47.20023 | 8.14310 | 16991 ft | 338 kts | 63° |
| 2026-05-04 12:10 | 47.21384 | 8.17074 | 16470 ft | 338 kts | 46° |
| 2026-05-04 12:10 | 47.23262 | 8.19160 | 15857 ft | 340 kts | 28° |
| 2026-05-04 12:10 | 47.25479 | 8.20295 | 15299 ft | 337 kts | 9° |
| 2026-05-04 12:10 | 47.27815 | 8.20403 | 14513 ft | 341 kts | 351° |
| 2026-05-04 12:11 | 47.30036 | 8.19388 | 14060 ft | 332 kts | 333° |
| 2026-05-04 12:11 | 47.32097 | 8.17872 | 13634 ft | 325 kts | 332° |
| 2026-05-04 12:11 | 47.34078 | 8.16395 | 13222 ft | 320 kts | 332° |
| 2026-05-04 12:11 | 47.36051 | 8.14926 | 12818 ft | 315 kts | 332° |
| 2026-05-04 12:12 | 47.38009 | 8.13466 | 12385 ft | 312 kts | 332° |
| 2026-05-04 12:12 | 47.39919 | 8.12039 | 11977 ft | 309 kts | 332° |
| 2026-05-04 12:12 | 47.41824 | 8.10616 | 11570 ft | 306 kts | 332° |
| 2026-05-04 12:12 | 47.43708 | 8.09206 | 11171 ft | 303 kts | 332° |
| 2026-05-04 12:13 | 47.45577 | 8.07807 | 10761 ft | 300 kts | 333° |
| 2026-05-04 12:14 | 47.56402 | 8.16676 | 7731 ft | 273 kts | 57° |
| 2026-05-04 12:15 | 47.57467 | 8.18966 | 7381 ft | 268 kts | 57° |
| 2026-05-04 12:15 | 47.58520 | 8.21232 | 7027 ft | 263 kts | 57° |
| 2026-05-04 12:15 | 47.59529 | 8.23453 | 6684 ft | 258 kts | 61° |
| 2026-05-04 12:15 | 47.60305 | 8.25807 | 6338 ft | 253 kts | 67° |
| 2026-05-04 12:16 | 47.61020 | 8.28177 | 6010 ft | 249 kts | 66° |
| 2026-05-04 12:16 | 47.61718 | 8.30497 | 5682 ft | 244 kts | 69° |
| 2026-05-04 12:16 | 47.62001 | 8.32898 | 5331 ft | 241 kts | 94° |
| 2026-05-04 12:16 | 47.61472 | 8.35234 | 4966 ft | 239 kts | 122° |
| 2026-05-04 12:17 | 47.60345 | 8.37042 | 4583 ft | 239 kts | 136° |
| 2026-05-04 12:17 | 47.59111 | 8.38683 | 4298 ft | 234 kts | 136° |
| 2026-05-04 12:17 | 47.57919 | 8.40297 | 3976 ft | 231 kts | 135° |
| 2026-05-04 12:17 | 47.56748 | 8.41900 | 3678 ft | 228 kts | 135° |
| 2026-05-04 12:18 | 47.55593 | 8.43484 | 3443 ft | 217 kts | 135° |
| 2026-05-04 12:18 | 47.54549 | 8.44914 | 3356 ft | 201 kts | 135° |
| 2026-05-04 12:18 | 47.53517 | 8.46334 | 2963 ft | 194 kts | 135° |
| 2026-05-04 12:18 | 47.52569 | 8.47685 | 2636 ft | 190 kts | 134° |
| 2026-05-04 12:19 | 47.51604 | 8.48997 | 2227 ft | 178 kts | 135° |
| 2026-05-04 12:19 | 47.50760 | 8.50125 | 2145 ft | 143 kts | 135° |
| 2026-05-04 12:19 | 47.50137 | 8.50968 | 2047 ft | 115 kts | 133° |
| 2026-05-04 12:19 | 47.49537 | 8.51822 | 1765 ft | 132 kts | 134° |
| 2026-05-04 12:20 | 47.48840 | 8.52753 | 1663 ft | 133 kts | 136° |
| 2026-05-04 12:20 | 47.48168 | 8.53667 | 1436 ft | 133 kts | 135° |
| 2026-05-04 12:20 | 47.47536 | 8.54524 | 1385 ft | 109 kts | 134° |
| 2026-05-04 12:20 | 47.47042 | 8.55201 | 1385 ft | 81 kts | 137° |
| 2026-05-04 12:21 | 47.46790 | 8.55543 | 1387 ft | 30 kts | 143° |
| 2026-05-04 12:21 | 47.46624 | 8.55668 | 1388 ft | 23 kts | 166° |
| 2026-05-04 12:21 | 47.46498 | 8.55711 | 1388 ft | 10 kts | 167° |
| 2026-05-04 12:21 | 47.46446 | 8.55728 | 1389 ft | 6 kts | 166° |
| 2026-05-04 12:22 | 47.46380 | 8.55761 | 1389 ft | 14 kts | 143° |
| 2026-05-04 12:22 | 47.46298 | 8.55871 | 1392 ft | 16 kts | 137° |
| 2026-05-04 12:22 | 47.46234 | 8.55958 | 1395 ft | 9 kts | 137° |
| 2026-05-04 12:22 | 47.46180 | 8.56031 | 1397 ft | 12 kts | 138° |
| 2026-05-04 12:23 | 47.46108 | 8.56131 | 1398 ft | 16 kts | 136° |
| 2026-05-04 12:23 | 47.46014 | 8.56258 | 1402 ft | 19 kts | 137° |
| 2026-05-04 12:23 | 47.45908 | 8.56401 | 1404 ft | 22 kts | 137° |
| 2026-05-04 12:23 | 47.45824 | 8.56516 | 1407 ft | 13 kts | 137° |
| 2026-05-04 12:24 | 47.45793 | 8.56657 | 1409 ft | 15 kts | 96° |
| 2026-05-04 12:24 | 47.45781 | 8.56828 | 1411 ft | 17 kts | 95° |
| 2026-05-04 12:24 | 47.45771 | 8.56970 | 1414 ft | 10 kts | 101° |
| 2026-05-04 12:24 | 47.45746 | 8.57081 | 1416 ft | 12 kts | 96° |
| 2026-05-04 12:25 | 47.45737 | 8.57214 | 1419 ft | 13 kts | 95° |
| 2026-05-04 12:25 | 47.45752 | 8.57291 | 1421 ft | 5 kts | 39° |
| 2026-05-04 12:25 | 47.45765 | 8.57339 | 1423 ft | 5 kts | 90° |
| 2026-05-04 12:25 | 47.45761 | 8.57360 | 1424 ft | 2 kts | 125° |
| 2026-05-04 12:26 | 47.45737 | 8.57375 | 1424 ft | 5 kts | 183° |
| 2026-05-04 12:26 | 47.45716 | 8.57373 | 1424 ft | 0 kts | 184° |